首页
METAR-TAF:

METAR-TAF

机场 :

Kahului, 夏威夷州, 美国

纬度: 20-53-33N, 经度: 156-26-13W, 海拔: 16米

当前天气观测

该预报发布于9分钟前的13:54 UTC
风速4节,风向东北
温度 22°C
湿度 73%
气压 1017 hPa
能見度: 16.1公里
天空无云

METAR: PHOG 181354Z AUTO 04004KT 10SM CLR 22/17 A3002 RMK AO2 SLP169 T02170172 TSNO

时间: 04:03 (14:03 UTC)

预报

该预报发布于2小时和43分钟前的11:20 UTC
预报有效从18日的 12点(UTC)到 19日的 12点(UTC)
风速8节,风向东北
能見度: 10公里
少量云层高于4000英尺
从 18日的 2000点(UTC)
风速16节,风向北转东北,有时为28节阵风
能見度: 10公里
少量云层高于3000英尺
散云层高于5000英尺
从 19日的 0600点(UTC)
风速8节,风向东北
能見度: 10公里
散云层高于2500英尺
多云层高于5000英尺

TAF: PHOG 181120Z 1812/1912 04008KT P6SM FEW040 FM182000 03016G28KT P6SM FEW030 SCT050 FM190600 05008KT P6SM SCT025 BKN050

超过4000个机场的气象观测和天气预报(METAR&TAF报告)。

可查询的气象台以黄色和红色小点在地图上表示。

将鼠标移到小点上方,可查看气象台名称。

然后点击查看天气观测和预报。

如需切换地图:点击带黑十字的绿色按钮放大地图;点击带横线的绿色按钮缩小地图;或者点击绿色箭头查看邻近地区的地图。


METAR-TAF: